sensor_id;sensor_type;location;lat;lon;timestamp;P1;durP1;ratioP1;P2;durP2;ratioP2
34896;SDS011;43407;51.828;-2.298;2023-07-31T00:01:43;1.50;;;1.40;;
34896;SDS011;43407;51.828;-2.298;2023-07-31T00:04:09;3.00;;;1.60;;
34896;SDS011;43407;51.828;-2.298;2023-07-31T00:06:34;3.13;;;1.20;;
34896;SDS011;43407;51.828;-2.298;2023-07-31T00:09:00;4.28;;;1.50;;
34896;SDS011;43407;51.828;-2.298;2023-07-31T00:11:25;1.20;;;0.82;;
34896;SDS011;43407;51.828;-2.298;2023-07-31T00:13:52;1.92;;;1.33;;
34896;SDS011;43407;51.828;-2.298;2023-07-31T00:16:18;2.72;;;1.30;;
34896;SDS011;43407;51.828;-2.298;2023-07-31T00:18:44;2.08;;;1.17;;
34896;SDS011;43407;51.828;-2.298;2023-07-31T00:21:09;2.13;;;1.17;;
34896;SDS011;43407;51.828;-2.298;2023-07-31T00:23:35;2.88;;;1.13;;
34896;SDS011;43407;51.828;-2.298;2023-07-31T00:26:00;1.50;;;0.82;;
34896;SDS011;43407;51.828;-2.298;2023-07-31T00:28:26;2.85;;;1.20;;
34896;SDS011;43407;51.828;-2.298;2023-07-31T00:30:52;1.73;;;1.13;;
34896;SDS011;43407;51.828;-2.298;2023-07-31T00:33:18;1.17;;;0.90;;
34896;SDS011;43407;51.828;-2.298;2023-07-31T00:35:43;1.55;;;0.95;;
34896;SDS011;43407;51.828;-2.298;2023-07-31T00:38:09;2.72;;;1.13;;
34896;SDS011;43407;51.828;-2.298;2023-07-31T00:40:35;1.25;;;0.70;;
34896;SDS011;43407;51.828;-2.298;2023-07-31T00:43:02;1.40;;;1.10;;
34896;SDS011;43407;51.828;-2.298;2023-07-31T00:45:28;1.52;;;0.80;;
34896;SDS011;43407;51.828;-2.298;2023-07-31T00:47:53;1.48;;;0.88;;
34896;SDS011;43407;51.828;-2.298;2023-07-31T00:50:19;0.88;;;0.73;;
34896;SDS011;43407;51.828;-2.298;2023-07-31T00:52:45;2.13;;;0.95;;
34896;SDS011;43407;51.828;-2.298;2023-07-31T00:55:10;1.30;;;0.70;;
34896;SDS011;43407;51.828;-2.298;2023-07-31T00:57:36;2.05;;;0.80;;
34896;SDS011;43407;51.828;-2.298;2023-07-31T01:00:02;0.82;;;0.80;;
34896;SDS011;43407;51.828;-2.298;2023-07-31T01:02:28;2.95;;;0.90;;
34896;SDS011;43407;51.828;-2.298;2023-07-31T01:04:54;1.50;;;0.80;;
34896;SDS011;43407;51.828;-2.298;2023-07-31T01:07:35;0.50;;;0.50;;
34896;SDS011;43407;51.828;-2.298;2023-07-31T01:10:40;0.90;;;0.70;;
34896;SDS011;43407;51.828;-2.298;2023-07-31T01:13:00;4.47;;;0.80;;
34896;SDS011;43407;51.828;-2.298;2023-07-31T01:15:26;1.15;;;0.60;;
34896;SDS011;43407;51.828;-2.298;2023-07-31T01:17:52;1.08;;;0.63;;
34896;SDS011;43407;51.828;-2.298;2023-07-31T01:20:18;0.70;;;0.55;;
34896;SDS011;43407;51.828;-2.298;2023-07-31T01:31:07;0.40;;;0.40;;
34896;SDS011;43407;51.828;-2.298;2023-07-31T01:33:36;0.40;;;0.40;;
34896;SDS011;43407;51.828;-2.298;2023-07-31T01:36:02;0.98;;;0.52;;
34896;SDS011;43407;51.828;-2.298;2023-07-31T01:38:28;0.73;;;0.52;;
34896;SDS011;43407;51.828;-2.298;2023-07-31T01:40:54;0.73;;;0.50;;
34896;SDS011;43407;51.828;-2.298;2023-07-31T01:43:19;1.75;;;0.40;;
34896;SDS011;43407;51.828;-2.298;2023-07-31T01:45:45;1.50;;;0.50;;
34896;SDS011;43407;51.828;-2.298;2023-07-31T01:48:10;0.65;;;0.47;;
34896;SDS011;43407;51.828;-2.298;2023-07-31T01:50:36;1.60;;;0.57;;
34896;SDS011;43407;51.828;-2.298;2023-07-31T01:53:01;0.90;;;0.30;;
34896;SDS011;43407;51.828;-2.298;2023-07-31T01:55:27;0.50;;;0.50;;
34896;SDS011;43407;51.828;-2.298;2023-07-31T01:57:52;0.30;;;0.30;;
34896;SDS011;43407;51.828;-2.298;2023-07-31T02:00:18;0.38;;;0.38;;
34896;SDS011;43407;51.828;-2.298;2023-07-31T02:02:44;0.38;;;0.30;;
34896;SDS011;43407;51.828;-2.298;2023-07-31T02:05:09;0.98;;;0.35;;
34896;SDS011;43407;51.828;-2.298;2023-07-31T02:07:35;0.40;;;0.40;;
34896;SDS011;43407;51.828;-2.298;2023-07-31T02:10:00;0.52;;;0.40;;
34896;SDS011;43407;51.828;-2.298;2023-07-31T02:12:26;0.30;;;0.30;;
34896;SDS011;43407;51.828;-2.298;2023-07-31T02:14:51;0.30;;;0.30;;
34896;SDS011;43407;51.828;-2.298;2023-07-31T02:17:17;0.43;;;0.30;;
34896;SDS011;43407;51.828;-2.298;2023-07-31T02:19:42;1.00;;;0.50;;
34896;SDS011;43407;51.828;-2.298;2023-07-31T02:22:08;1.70;;;0.60;;
34896;SDS011;43407;51.828;-2.298;2023-07-31T02:24:33;1.00;;;0.47;;
34896;SDS011;43407;51.828;-2.298;2023-07-31T02:26:59;1.55;;;0.70;;
34896;SDS011;43407;51.828;-2.298;2023-07-31T02:29:24;2.80;;;0.70;;
34896;SDS011;43407;51.828;-2.298;2023-07-31T02:31:50;1.83;;;0.85;;
34896;SDS011;43407;51.828;-2.298;2023-07-31T02:34:15;2.80;;;0.90;;
34896;SDS011;43407;51.828;-2.298;2023-07-31T02:36:41;2.65;;;0.73;;
34896;SDS011;43407;51.828;-2.298;2023-07-31T02:39:06;2.03;;;0.90;;
34896;SDS011;43407;51.828;-2.298;2023-07-31T02:41:32;2.63;;;0.90;;
34896;SDS011;43407;51.828;-2.298;2023-07-31T02:43:57;2.53;;;0.98;;
34896;SDS011;43407;51.828;-2.298;2023-07-31T02:46:23;2.97;;;0.95;;
34896;SDS011;43407;51.828;-2.298;2023-07-31T02:48:50;4.35;;;1.23;;
34896;SDS011;43407;51.828;-2.298;2023-07-31T02:51:15;2.60;;;1.30;;
34896;SDS011;43407;51.828;-2.298;2023-07-31T02:53:41;2.67;;;1.20;;
34896;SDS011;43407;51.828;-2.298;2023-07-31T02:56:07;4.00;;;1.10;;
34896;SDS011;43407;51.828;-2.298;2023-07-31T02:58:32;5.25;;;1.40;;
34896;SDS011;43407;51.828;-2.298;2023-07-31T03:00:58;3.90;;;1.50;;
34896;SDS011;43407;51.828;-2.298;2023-07-31T03:03:24;4.70;;;1.30;;
34896;SDS011;43407;51.828;-2.298;2023-07-31T03:05:49;6.38;;;1.65;;
34896;SDS011;43407;51.828;-2.298;2023-07-31T03:08:15;2.92;;;1.40;;
34896;SDS011;43407;51.828;-2.298;2023-07-31T03:10:40;3.97;;;1.48;;
34896;SDS011;43407;51.828;-2.298;2023-07-31T03:13:06;4.53;;;1.50;;
34896;SDS011;43407;51.828;-2.298;2023-07-31T03:15:32;2.50;;;1.48;;
34896;SDS011;43407;51.828;-2.298;2023-07-31T03:17:57;3.03;;;1.65;;
34896;SDS011;43407;51.828;-2.298;2023-07-31T03:20:23;2.45;;;1.35;;
34896;SDS011;43407;51.828;-2.298;2023-07-31T03:22:48;5.32;;;1.88;;
34896;SDS011;43407;51.828;-2.298;2023-07-31T03:25:14;2.88;;;1.45;;
34896;SDS011;43407;51.828;-2.298;2023-07-31T03:27:39;4.53;;;1.92;;
34896;SDS011;43407;51.828;-2.298;2023-07-31T03:30:05;6.00;;;2.17;;
34896;SDS011;43407;51.828;-2.298;2023-07-31T03:32:31;4.50;;;2.22;;
34896;SDS011;43407;51.828;-2.298;2023-07-31T03:34:57;6.22;;;2.63;;
34896;SDS011;43407;51.828;-2.298;2023-07-31T03:37:22;7.70;;;3.78;;
34896;SDS011;43407;51.828;-2.298;2023-07-31T03:39:48;7.65;;;4.85;;
34896;SDS011;43407;51.828;-2.298;2023-07-31T03:42:13;12.05;;;6.25;;
34896;SDS011;43407;51.828;-2.298;2023-07-31T03:44:39;7.60;;;5.85;;
34896;SDS011;43407;51.828;-2.298;2023-07-31T03:47:05;7.30;;;5.78;;
34896;SDS011;43407;51.828;-2.298;2023-07-31T03:49:31;8.48;;;5.07;;
34896;SDS011;43407;51.828;-2.298;2023-07-31T03:51:56;6.78;;;3.83;;
34896;SDS011;43407;51.828;-2.298;2023-07-31T03:54:22;7.00;;;3.67;;
34896;SDS011;43407;51.828;-2.298;2023-07-31T03:56:47;4.82;;;3.33;;
34896;SDS011;43407;51.828;-2.298;2023-07-31T03:59:13;5.25;;;3.78;;
34896;SDS011;43407;51.828;-2.298;2023-07-31T04:01:38;5.07;;;4.00;;
34896;SDS011;43407;51.828;-2.298;2023-07-31T04:04:04;4.82;;;4.30;;
34896;SDS011;43407;51.828;-2.298;2023-07-31T04:06:30;9.48;;;4.32;;
34896;SDS011;43407;51.828;-2.298;2023-07-31T04:08:55;6.80;;;4.30;;
34896;SDS011;43407;51.828;-2.298;2023-07-31T04:11:21;5.70;;;4.38;;
34896;SDS011;43407;51.828;-2.298;2023-07-31T04:13:46;6.03;;;4.65;;
34896;SDS011;43407;51.828;-2.298;2023-07-31T04:16:12;7.47;;;4.70;;
34896;SDS011;43407;51.828;-2.298;2023-07-31T04:18:37;6.53;;;4.70;;
34896;SDS011;43407;51.828;-2.298;2023-07-31T04:21:03;6.10;;;4.80;;
34896;SDS011;43407;51.828;-2.298;2023-07-31T04:23:28;7.38;;;4.70;;
34896;SDS011;43407;51.828;-2.298;2023-07-31T04:25:54;6.93;;;4.72;;
34896;SDS011;43407;51.828;-2.298;2023-07-31T04:28:19;7.15;;;5.03;;
34896;SDS011;43407;51.828;-2.298;2023-07-31T04:30:45;6.43;;;4.97;;
34896;SDS011;43407;51.828;-2.298;2023-07-31T04:33:11;7.70;;;4.28;;
34896;SDS011;43407;51.828;-2.298;2023-07-31T04:35:36;7.15;;;5.05;;
34896;SDS011;43407;51.828;-2.298;2023-07-31T04:38:02;5.45;;;4.93;;
34896;SDS011;43407;51.828;-2.298;2023-07-31T04:40:27;5.28;;;4.43;;
34896;SDS011;43407;51.828;-2.298;2023-07-31T04:42:53;4.85;;;4.40;;
34896;SDS011;43407;51.828;-2.298;2023-07-31T04:45:18;5.38;;;4.53;;
34896;SDS011;43407;51.828;-2.298;2023-07-31T04:47:44;5.22;;;4.43;;
34896;SDS011;43407;51.828;-2.298;2023-07-31T04:50:09;4.72;;;3.83;;
34896;SDS011;43407;51.828;-2.298;2023-07-31T04:52:35;5.22;;;3.70;;
34896;SDS011;43407;51.828;-2.298;2023-07-31T04:55:00;5.45;;;4.38;;
34896;SDS011;43407;51.828;-2.298;2023-07-31T04:57:26;4.85;;;3.90;;
34896;SDS011;43407;51.828;-2.298;2023-07-31T04:59:51;4.97;;;3.80;;
34896;SDS011;43407;51.828;-2.298;2023-07-31T05:02:17;5.20;;;4.07;;
34896;SDS011;43407;51.828;-2.298;2023-07-31T05:04:43;6.00;;;3.85;;
34896;SDS011;43407;51.828;-2.298;2023-07-31T05:07:08;5.80;;;3.80;;
34896;SDS011;43407;51.828;-2.298;2023-07-31T05:09:34;5.05;;;3.70;;
34896;SDS011;43407;51.828;-2.298;2023-07-31T05:11:59;3.53;;;3.15;;
34896;SDS011;43407;51.828;-2.298;2023-07-31T05:14:25;4.65;;;3.40;;
34896;SDS011;43407;51.828;-2.298;2023-07-31T05:16:51;4.10;;;3.38;;
34896;SDS011;43407;51.828;-2.298;2023-07-31T05:19:16;4.15;;;3.72;;
34896;SDS011;43407;51.828;-2.298;2023-07-31T05:21:42;5.43;;;3.97;;
34896;SDS011;43407;51.828;-2.298;2023-07-31T05:24:08;4.40;;;4.00;;
34896;SDS011;43407;51.828;-2.298;2023-07-31T05:26:34;5.15;;;3.95;;
34896;SDS011;43407;51.828;-2.298;2023-07-31T05:28:59;5.80;;;4.25;;
34896;SDS011;43407;51.828;-2.298;2023-07-31T05:31:25;7.65;;;4.68;;
34896;SDS011;43407;51.828;-2.298;2023-07-31T05:33:50;6.97;;;5.13;;
34896;SDS011;43407;51.828;-2.298;2023-07-31T05:36:16;5.80;;;5.18;;
34896;SDS011;43407;51.828;-2.298;2023-07-31T05:38:42;9.85;;;5.65;;
34896;SDS011;43407;51.828;-2.298;2023-07-31T05:41:11;10.13;;;5.85;;
34896;SDS011;43407;51.828;-2.298;2023-07-31T05:43:37;9.25;;;6.32;;
34896;SDS011;43407;51.828;-2.298;2023-07-31T05:46:02;6.28;;;5.38;;
34896;SDS011;43407;51.828;-2.298;2023-07-31T05:48:28;7.28;;;5.32;;
34896;SDS011;43407;51.828;-2.298;2023-07-31T05:50:53;7.50;;;5.22;;
34896;SDS011;43407;51.828;-2.298;2023-07-31T05:53:19;9.55;;;5.45;;
34896;SDS011;43407;51.828;-2.298;2023-07-31T05:55:44;9.35;;;5.13;;
34896;SDS011;43407;51.828;-2.298;2023-07-31T05:58:10;9.75;;;4.80;;
34896;SDS011;43407;51.828;-2.298;2023-07-31T06:00:36;11.20;;;5.40;;
34896;SDS011;43407;51.828;-2.298;2023-07-31T06:03:01;11.00;;;5.22;;
34896;SDS011;43407;51.828;-2.298;2023-07-31T06:05:27;12.02;;;5.10;;
34896;SDS011;43407;51.828;-2.298;2023-07-31T06:07:54;12.07;;;5.30;;
34896;SDS011;43407;51.828;-2.298;2023-07-31T06:10:19;10.30;;;5.65;;
34896;SDS011;43407;51.828;-2.298;2023-07-31T06:12:45;11.30;;;4.90;;
34896;SDS011;43407;51.828;-2.298;2023-07-31T06:15:10;14.07;;;5.28;;
34896;SDS011;43407;51.828;-2.298;2023-07-31T06:17:36;10.77;;;4.88;;
34896;SDS011;43407;51.828;-2.298;2023-07-31T06:20:01;12.65;;;5.45;;
34896;SDS011;43407;51.828;-2.298;2023-07-31T06:22:30;10.60;;;4.97;;
34896;SDS011;43407;51.828;-2.298;2023-07-31T06:24:56;13.15;;;5.63;;
34896;SDS011;43407;51.828;-2.298;2023-07-31T06:27:21;13.38;;;5.53;;
34896;SDS011;43407;51.828;-2.298;2023-07-31T06:29:47;11.15;;;5.32;;
34896;SDS011;43407;51.828;-2.298;2023-07-31T06:32:13;10.02;;;5.25;;
34896;SDS011;43407;51.828;-2.298;2023-07-31T06:34:38;11.20;;;5.68;;
34896;SDS011;43407;51.828;-2.298;2023-07-31T06:37:04;13.63;;;5.32;;
34896;SDS011;43407;51.828;-2.298;2023-07-31T06:39:30;9.60;;;4.70;;
34896;SDS011;43407;51.828;-2.298;2023-07-31T06:41:55;7.07;;;4.03;;
34896;SDS011;43407;51.828;-2.298;2023-07-31T06:44:21;9.43;;;5.68;;
34896;SDS011;43407;51.828;-2.298;2023-07-31T06:46:46;8.50;;;4.47;;
34896;SDS011;43407;51.828;-2.298;2023-07-31T06:49:12;11.02;;;5.30;;
34896;SDS011;43407;51.828;-2.298;2023-07-31T06:51:40;13.45;;;4.85;;
34896;SDS011;43407;51.828;-2.298;2023-07-31T06:54:05;10.45;;;4.80;;
34896;SDS011;43407;51.828;-2.298;2023-07-31T06:56:31;9.25;;;4.90;;
34896;SDS011;43407;51.828;-2.298;2023-07-31T06:58:56;10.52;;;4.93;;
34896;SDS011;43407;51.828;-2.298;2023-07-31T07:01:22;12.23;;;4.30;;
34896;SDS011;43407;51.828;-2.298;2023-07-31T07:03:47;11.68;;;5.10;;
34896;SDS011;43407;51.828;-2.298;2023-07-31T07:06:15;8.70;;;4.57;;
34896;SDS011;43407;51.828;-2.298;2023-07-31T07:08:41;6.90;;;4.47;;
34896;SDS011;43407;51.828;-2.298;2023-07-31T07:11:07;10.23;;;4.93;;
34896;SDS011;43407;51.828;-2.298;2023-07-31T07:13:32;10.63;;;4.90;;
34896;SDS011;43407;51.828;-2.298;2023-07-31T07:15:58;9.55;;;4.70;;
34896;SDS011;43407;51.828;-2.298;2023-07-31T07:18:23;7.25;;;4.60;;
34896;SDS011;43407;51.828;-2.298;2023-07-31T07:20:49;9.15;;;5.00;;
34896;SDS011;43407;51.828;-2.298;2023-07-31T07:23:15;7.35;;;4.55;;
34896;SDS011;43407;51.828;-2.298;2023-07-31T07:25:41;7.10;;;4.68;;
34896;SDS011;43407;51.828;-2.298;2023-07-31T07:28:08;7.72;;;4.38;;
34896;SDS011;43407;51.828;-2.298;2023-07-31T07:30:33;8.25;;;3.95;;
34896;SDS011;43407;51.828;-2.298;2023-07-31T07:32:59;13.50;;;4.40;;
34896;SDS011;43407;51.828;-2.298;2023-07-31T07:35:24;7.10;;;4.50;;
34896;SDS011;43407;51.828;-2.298;2023-07-31T07:37:50;6.18;;;3.10;;
34896;SDS011;43407;51.828;-2.298;2023-07-31T07:40:15;5.57;;;3.38;;
34896;SDS011;43407;51.828;-2.298;2023-07-31T07:42:41;5.97;;;3.42;;
34896;SDS011;43407;51.828;-2.298;2023-07-31T07:45:07;8.15;;;4.10;;
34896;SDS011;43407;51.828;-2.298;2023-07-31T07:47:32;6.85;;;3.53;;
34896;SDS011;43407;51.828;-2.298;2023-07-31T07:49:58;7.90;;;4.05;;
34896;SDS011;43407;51.828;-2.298;2023-07-31T07:52:23;7.75;;;3.60;;
34896;SDS011;43407;51.828;-2.298;2023-07-31T07:54:49;9.15;;;4.35;;
34896;SDS011;43407;51.828;-2.298;2023-07-31T07:57:15;7.10;;;4.00;;
34896;SDS011;43407;51.828;-2.298;2023-07-31T07:59:40;7.90;;;3.60;;
34896;SDS011;43407;51.828;-2.298;2023-07-31T08:02:06;6.57;;;3.60;;
34896;SDS011;43407;51.828;-2.298;2023-07-31T08:04:32;7.95;;;3.83;;
34896;SDS011;43407;51.828;-2.298;2023-07-31T08:06:57;8.18;;;3.85;;
34896;SDS011;43407;51.828;-2.298;2023-07-31T08:09:23;8.93;;;3.70;;
34896;SDS011;43407;51.828;-2.298;2023-07-31T08:11:48;9.63;;;4.03;;
34896;SDS011;43407;51.828;-2.298;2023-07-31T08:14:14;11.18;;;4.07;;
34896;SDS011;43407;51.828;-2.298;2023-07-31T08:16:39;7.32;;;3.85;;
34896;SDS011;43407;51.828;-2.298;2023-07-31T08:19:05;9.38;;;3.72;;
34896;SDS011;43407;51.828;-2.298;2023-07-31T08:21:31;6.63;;;3.78;;
34896;SDS011;43407;51.828;-2.298;2023-07-31T08:23:56;9.20;;;4.18;;
34896;SDS011;43407;51.828;-2.298;2023-07-31T08:26:22;8.73;;;4.22;;
34896;SDS011;43407;51.828;-2.298;2023-07-31T08:28:47;8.52;;;3.72;;
34896;SDS011;43407;51.828;-2.298;2023-07-31T08:31:13;6.40;;;3.45;;
34896;SDS011;43407;51.828;-2.298;2023-07-31T08:33:39;5.40;;;3.17;;
34896;SDS011;43407;51.828;-2.298;2023-07-31T08:36:05;7.13;;;3.15;;
34896;SDS011;43407;51.828;-2.298;2023-07-31T08:38:31;6.03;;;3.45;;
34896;SDS011;43407;51.828;-2.298;2023-07-31T08:40:57;6.72;;;3.10;;
34896;SDS011;43407;51.828;-2.298;2023-07-31T08:43:23;5.53;;;3.20;;
34896;SDS011;43407;51.828;-2.298;2023-07-31T08:45:50;5.07;;;3.22;;
34896;SDS011;43407;51.828;-2.298;2023-07-31T08:48:16;5.88;;;3.10;;
34896;SDS011;43407;51.828;-2.298;2023-07-31T08:50:42;10.00;;;3.95;;
34896;SDS011;43407;51.828;-2.298;2023-07-31T08:53:08;7.38;;;3.50;;
34896;SDS011;43407;51.828;-2.298;2023-07-31T08:55:34;5.32;;;3.30;;
34896;SDS011;43407;51.828;-2.298;2023-07-31T08:58:00;7.13;;;3.95;;
34896;SDS011;43407;51.828;-2.298;2023-07-31T09:00:28;8.20;;;3.80;;
34896;SDS011;43407;51.828;-2.298;2023-07-31T09:05:23;6.82;;;3.33;;
34896;SDS011;43407;51.828;-2.298;2023-07-31T09:07:49;8.88;;;3.28;;
34896;SDS011;43407;51.828;-2.298;2023-07-31T09:10:15;12.93;;;3.63;;
34896;SDS011;43407;51.828;-2.298;2023-07-31T09:12:40;8.48;;;4.03;;
34896;SDS011;43407;51.828;-2.298;2023-07-31T09:15:06;7.13;;;4.05;;
34896;SDS011;43407;51.828;-2.298;2023-07-31T09:17:34;8.23;;;3.70;;
34896;SDS011;43407;51.828;-2.298;2023-07-31T09:22:39;5.07;;;3.50;;
34896;SDS011;43407;51.828;-2.298;2023-07-31T09:27:50;8.50;;;4.38;;
34896;SDS011;43407;51.828;-2.298;2023-07-31T09:30:18;8.18;;;3.92;;
34896;SDS011;43407;51.828;-2.298;2023-07-31T09:32:44;9.90;;;4.88;;
34896;SDS011;43407;51.828;-2.298;2023-07-31T09:35:30;10.23;;;4.88;;
34896;SDS011;43407;51.828;-2.298;2023-07-31T09:38:03;7.72;;;4.85;;
34896;SDS011;43407;51.828;-2.298;2023-07-31T09:40:33;9.95;;;5.88;;
34896;SDS011;43407;51.828;-2.298;2023-07-31T09:43:00;12.02;;;6.03;;
34896;SDS011;43407;51.828;-2.298;2023-07-31T09:45:29;11.50;;;6.03;;
34896;SDS011;43407;51.828;-2.298;2023-07-31T09:47:58;13.68;;;5.95;;
34896;SDS011;43407;51.828;-2.298;2023-07-31T09:50:24;14.65;;;6.43;;
34896;SDS011;43407;51.828;-2.298;2023-07-31T09:52:50;10.68;;;6.22;;
34896;SDS011;43407;51.828;-2.298;2023-07-31T09:55:17;7.95;;;5.85;;
34896;SDS011;43407;51.828;-2.298;2023-07-31T09:57:47;9.75;;;6.45;;
34896;SDS011;43407;51.828;-2.298;2023-07-31T10:00:15;11.95;;;6.57;;
34896;SDS011;43407;51.828;-2.298;2023-07-31T10:02:41;14.75;;;6.30;;
34896;SDS011;43407;51.828;-2.298;2023-07-31T10:05:10;10.93;;;6.32;;
34896;SDS011;43407;51.828;-2.298;2023-07-31T10:07:45;14.65;;;6.15;;
34896;SDS011;43407;51.828;-2.298;2023-07-31T10:10:16;17.05;;;6.53;;
34896;SDS011;43407;51.828;-2.298;2023-07-31T10:12:45;18.40;;;7.03;;
34896;SDS011;43407;51.828;-2.298;2023-07-31T10:15:11;14.40;;;6.60;;
34896;SDS011;43407;51.828;-2.298;2023-07-31T10:17:37;11.80;;;7.18;;
34896;SDS011;43407;51.828;-2.298;2023-07-31T10:20:03;9.55;;;6.60;;
34896;SDS011;43407;51.828;-2.298;2023-07-31T10:22:30;12.75;;;6.90;;
34896;SDS011;43407;51.828;-2.298;2023-07-31T10:24:57;11.43;;;7.30;;
34896;SDS011;43407;51.828;-2.298;2023-07-31T10:27:23;11.23;;;6.85;;
34896;SDS011;43407;51.828;-2.298;2023-07-31T10:29:49;11.82;;;6.95;;
34896;SDS011;43407;51.828;-2.298;2023-07-31T10:32:15;12.98;;;6.70;;
34896;SDS011;43407;51.828;-2.298;2023-07-31T10:34:42;10.20;;;6.10;;
34896;SDS011;43407;51.828;-2.298;2023-07-31T10:37:41;9.55;;;6.60;;
34896;SDS011;43407;51.828;-2.298;2023-07-31T10:40:11;9.52;;;6.28;;
34896;SDS011;43407;51.828;-2.298;2023-07-31T10:42:54;9.43;;;6.18;;
34896;SDS011;43407;51.828;-2.298;2023-07-31T10:45:24;8.68;;;6.47;;
34896;SDS011;43407;51.828;-2.298;2023-07-31T10:47:57;9.88;;;6.40;;
34896;SDS011;43407;51.828;-2.298;2023-07-31T10:50:36;9.50;;;6.40;;
34896;SDS011;43407;51.828;-2.298;2023-07-31T10:53:02;14.27;;;7.57;;
34896;SDS011;43407;51.828;-2.298;2023-07-31T10:55:41;9.60;;;6.38;;
34896;SDS011;43407;51.828;-2.298;2023-07-31T10:58:08;9.88;;;6.82;;
34896;SDS011;43407;51.828;-2.298;2023-07-31T11:00:39;15.75;;;7.07;;
34896;SDS011;43407;51.828;-2.298;2023-07-31T11:05:53;9.77;;;6.10;;
34896;SDS011;43407;51.828;-2.298;2023-07-31T11:08:23;8.98;;;6.00;;
34896;SDS011;43407;51.828;-2.298;2023-07-31T11:13:33;11.23;;;6.15;;
34896;SDS011;43407;51.828;-2.298;2023-07-31T11:16:04;11.40;;;5.70;;
34896;SDS011;43407;51.828;-2.298;2023-07-31T11:18:30;14.40;;;5.85;;
34896;SDS011;43407;51.828;-2.298;2023-07-31T11:20:55;11.73;;;5.82;;
34896;SDS011;43407;51.828;-2.298;2023-07-31T11:23:21;7.50;;;4.82;;
34896;SDS011;43407;51.828;-2.298;2023-07-31T11:25:48;11.68;;;5.82;;
34896;SDS011;43407;51.828;-2.298;2023-07-31T11:28:14;8.82;;;5.20;;
34896;SDS011;43407;51.828;-2.298;2023-07-31T11:30:41;11.40;;;5.40;;
34896;SDS011;43407;51.828;-2.298;2023-07-31T11:33:08;11.50;;;5.43;;
34896;SDS011;43407;51.828;-2.298;2023-07-31T11:35:35;12.70;;;5.32;;
34896;SDS011;43407;51.828;-2.298;2023-07-31T11:38:06;8.93;;;5.22;;
34896;SDS011;43407;51.828;-2.298;2023-07-31T11:40:40;9.70;;;4.88;;
34896;SDS011;43407;51.828;-2.298;2023-07-31T11:45:32;11.98;;;4.65;;
34896;SDS011;43407;51.828;-2.298;2023-07-31T11:47:58;6.70;;;4.05;;
34896;SDS011;43407;51.828;-2.298;2023-07-31T11:50:24;11.75;;;4.80;;
34896;SDS011;43407;51.828;-2.298;2023-07-31T11:52:52;8.93;;;4.93;;
34896;SDS011;43407;51.828;-2.298;2023-07-31T11:55:20;9.20;;;4.53;;
34896;SDS011;43407;51.828;-2.298;2023-07-31T11:57:46;11.60;;;5.38;;
34896;SDS011;43407;51.828;-2.298;2023-07-31T12:00:13;14.85;;;5.60;;
34896;SDS011;43407;51.828;-2.298;2023-07-31T12:02:39;11.18;;;5.13;;
34896;SDS011;43407;51.828;-2.298;2023-07-31T12:05:06;9.98;;;5.00;;
34896;SDS011;43407;51.828;-2.298;2023-07-31T12:07:51;11.20;;;5.03;;
34896;SDS011;43407;51.828;-2.298;2023-07-31T12:10:24;14.43;;;6.07;;
34896;SDS011;43407;51.828;-2.298;2023-07-31T12:15:37;15.38;;;5.68;;
34896;SDS011;43407;51.828;-2.298;2023-07-31T12:18:05;11.38;;;4.70;;
34896;SDS011;43407;51.828;-2.298;2023-07-31T12:20:32;10.95;;;4.95;;
34896;SDS011;43407;51.828;-2.298;2023-07-31T12:22:57;15.32;;;5.45;;
34896;SDS011;43407;51.828;-2.298;2023-07-31T12:25:28;14.88;;;5.10;;
34896;SDS011;43407;51.828;-2.298;2023-07-31T12:27:57;17.95;;;5.72;;
34896;SDS011;43407;51.828;-2.298;2023-07-31T12:30:31;12.05;;;4.65;;
34896;SDS011;43407;51.828;-2.298;2023-07-31T12:33:03;14.82;;;5.93;;
34896;SDS011;43407;51.828;-2.298;2023-07-31T12:35:36;11.93;;;5.43;;
34896;SDS011;43407;51.828;-2.298;2023-07-31T12:38:02;12.05;;;5.10;;
34896;SDS011;43407;51.828;-2.298;2023-07-31T12:40:28;13.23;;;4.82;;
34896;SDS011;43407;51.828;-2.298;2023-07-31T12:42:53;12.35;;;5.03;;
34896;SDS011;43407;51.828;-2.298;2023-07-31T12:45:19;9.73;;;5.13;;
34896;SDS011;43407;51.828;-2.298;2023-07-31T12:47:46;19.35;;;6.10;;
34896;SDS011;43407;51.828;-2.298;2023-07-31T12:50:11;14.48;;;5.28;;
34896;SDS011;43407;51.828;-2.298;2023-07-31T12:52:37;12.55;;;5.10;;
34896;SDS011;43407;51.828;-2.298;2023-07-31T12:55:02;12.02;;;5.63;;
34896;SDS011;43407;51.828;-2.298;2023-07-31T12:57:29;15.20;;;5.15;;
34896;SDS011;43407;51.828;-2.298;2023-07-31T12:59:55;10.60;;;4.75;;
34896;SDS011;43407;51.828;-2.298;2023-07-31T13:02:21;14.25;;;5.85;;
34896;SDS011;43407;51.828;-2.298;2023-07-31T13:04:46;14.43;;;5.45;;
34896;SDS011;43407;51.828;-2.298;2023-07-31T13:07:12;9.13;;;4.75;;
34896;SDS011;43407;51.828;-2.298;2023-07-31T13:09:37;15.43;;;6.05;;
34896;SDS011;43407;51.828;-2.298;2023-07-31T13:12:03;17.15;;;5.00;;
34896;SDS011;43407;51.828;-2.298;2023-07-31T13:14:29;10.40;;;4.80;;
34896;SDS011;43407;51.828;-2.298;2023-07-31T13:16:54;15.82;;;5.35;;
34896;SDS011;43407;51.828;-2.298;2023-07-31T13:19:19;15.88;;;6.00;;
34896;SDS011;43407;51.828;-2.298;2023-07-31T13:21:45;16.55;;;6.50;;
34896;SDS011;43407;51.828;-2.298;2023-07-31T13:24:11;17.65;;;6.40;;
34896;SDS011;43407;51.828;-2.298;2023-07-31T13:26:36;16.80;;;6.07;;
34896;SDS011;43407;51.828;-2.298;2023-07-31T13:29:02;16.55;;;5.97;;
34896;SDS011;43407;51.828;-2.298;2023-07-31T13:31:27;16.40;;;5.80;;
34896;SDS011;43407;51.828;-2.298;2023-07-31T13:33:53;14.80;;;5.47;;
34896;SDS011;43407;51.828;-2.298;2023-07-31T13:36:18;13.88;;;5.47;;
34896;SDS011;43407;51.828;-2.298;2023-07-31T13:38:44;12.82;;;5.80;;
34896;SDS011;43407;51.828;-2.298;2023-07-31T13:41:09;19.73;;;6.43;;
34896;SDS011;43407;51.828;-2.298;2023-07-31T13:43:35;16.38;;;5.90;;
34896;SDS011;43407;51.828;-2.298;2023-07-31T13:46:01;18.55;;;6.60;;
34896;SDS011;43407;51.828;-2.298;2023-07-31T13:48:32;20.17;;;6.22;;
34896;SDS011;43407;51.828;-2.298;2023-07-31T13:50:59;20.00;;;5.75;;
34896;SDS011;43407;51.828;-2.298;2023-07-31T13:53:24;14.80;;;5.53;;
34896;SDS011;43407;51.828;-2.298;2023-07-31T13:55:50;17.80;;;6.28;;
34896;SDS011;43407;51.828;-2.298;2023-07-31T13:58:15;13.90;;;5.30;;
34896;SDS011;43407;51.828;-2.298;2023-07-31T14:00:42;11.48;;;5.35;;
34896;SDS011;43407;51.828;-2.298;2023-07-31T14:03:08;14.32;;;5.18;;
34896;SDS011;43407;51.828;-2.298;2023-07-31T14:05:33;13.57;;;5.70;;
34896;SDS011;43407;51.828;-2.298;2023-07-31T14:07:59;15.93;;;5.93;;
34896;SDS011;43407;51.828;-2.298;2023-07-31T14:10:25;13.32;;;5.50;;
34896;SDS011;43407;51.828;-2.298;2023-07-31T14:12:50;14.95;;;5.38;;
34896;SDS011;43407;51.828;-2.298;2023-07-31T14:15:16;18.08;;;5.60;;
34896;SDS011;43407;51.828;-2.298;2023-07-31T14:17:41;16.13;;;5.82;;
34896;SDS011;43407;51.828;-2.298;2023-07-31T14:20:07;12.13;;;5.25;;
34896;SDS011;43407;51.828;-2.298;2023-07-31T14:22:33;12.32;;;5.60;;
34896;SDS011;43407;51.828;-2.298;2023-07-31T14:24:59;16.48;;;5.85;;
34896;SDS011;43407;51.828;-2.298;2023-07-31T14:27:24;16.13;;;5.93;;
34896;SDS011;43407;51.828;-2.298;2023-07-31T14:29:50;18.63;;;6.40;;
34896;SDS011;43407;51.828;-2.298;2023-07-31T14:32:16;16.52;;;6.03;;
34896;SDS011;43407;51.828;-2.298;2023-07-31T14:34:41;13.90;;;5.85;;
34896;SDS011;43407;51.828;-2.298;2023-07-31T14:37:06;13.75;;;5.47;;
34896;SDS011;43407;51.828;-2.298;2023-07-31T14:39:32;10.68;;;5.38;;
34896;SDS011;43407;51.828;-2.298;2023-07-31T14:41:57;16.27;;;5.10;;
34896;SDS011;43407;51.828;-2.298;2023-07-31T14:44:23;14.85;;;6.47;;
34896;SDS011;43407;51.828;-2.298;2023-07-31T14:46:48;14.80;;;5.60;;
34896;SDS011;43407;51.828;-2.298;2023-07-31T14:49:14;12.20;;;5.35;;
34896;SDS011;43407;51.828;-2.298;2023-07-31T14:51:39;11.50;;;5.28;;
34896;SDS011;43407;51.828;-2.298;2023-07-31T14:54:05;12.30;;;5.22;;